createdAt,value
2018-12-06T00:01:58.821Z,6.93
2018-12-06T00:06:54.849Z,6.96
2018-12-06T00:11:50.989Z,6.95
2018-12-06T00:16:52.987Z,6.90
2018-12-06T00:21:49.020Z,6.85
2018-12-06T00:26:45.063Z,6.90
2018-12-06T00:31:41.088Z,6.95
2018-12-06T00:36:37.144Z,6.93
2018-12-06T00:41:33.342Z,6.92
2018-12-06T00:46:29.367Z,6.92
2018-12-06T00:51:25.401Z,6.88
2018-12-06T00:56:21.434Z,6.96
2018-12-06T01:01:17.567Z,6.90
2018-12-06T01:06:13.623Z,6.99
2018-12-06T01:11:09.625Z,6.88
2018-12-06T01:16:05.657Z,6.83
2018-12-06T01:21:01.802Z,6.87
2018-12-06T01:25:57.939Z,6.97
2018-12-06T01:30:53.990Z,6.97
2018-12-06T01:35:50.018Z,6.96
2018-12-06T01:40:46.234Z,6.96
2018-12-06T01:45:42.378Z,6.92
2018-12-06T01:50:38.405Z,7.07
2018-12-06T01:55:34.425Z,7.01
2018-12-06T02:00:30.566Z,7.13
2018-12-06T02:05:26.607Z,7.00
2018-12-06T02:10:22.648Z,7.04
2018-12-06T02:15:18.665Z,7.12
2018-12-06T02:20:14.719Z,7.08
2018-12-06T02:25:11.738Z,7.18
2018-12-06T02:30:07.899Z,7.08
2018-12-06T02:35:04.061Z,7.10
2018-12-06T02:40:00.086Z,7.16
2018-12-06T02:44:56.133Z,7.14
2018-12-06T02:49:52.162Z,7.18
2018-12-06T02:54:48.986Z,7.22
2018-12-06T02:59:45.697Z,7.27
2018-12-06T03:04:42.392Z,7.29
2018-12-06T03:09:38.545Z,7.19
2018-12-06T03:14:34.629Z,7.29
2018-12-06T03:19:30.658Z,7.32
2018-12-06T03:24:27.634Z,7.27
2018-12-06T03:29:23.680Z,7.28
2018-12-06T03:34:19.718Z,7.29
2018-12-06T03:39:15.781Z,7.22
2018-12-06T03:44:11.800Z,7.22
2018-12-06T03:49:07.825Z,7.24
2018-12-06T03:54:04.996Z,7.37
2018-12-06T03:59:01.050Z,7.40
2018-12-06T04:03:57.094Z,7.37
2018-12-06T04:08:53.143Z,7.31
2018-12-06T04:13:49.161Z,7.33
2018-12-06T04:18:45.197Z,7.36
2018-12-06T04:23:41.226Z,7.43
2018-12-06T04:28:37.296Z,7.39
2018-12-06T04:33:33.308Z,7.51
2018-12-06T04:38:29.327Z,7.38
2018-12-06T04:43:25.419Z,7.40
2018-12-06T04:48:22.185Z,7.48
2018-12-06T04:53:18.574Z,7.40
2018-12-06T04:58:14.592Z,7.53
2018-12-06T05:03:10.593Z,7.47
2018-12-06T05:08:06.637Z,7.43
2018-12-06T05:13:02.661Z,7.55
2018-12-06T05:17:58.695Z,7.50
2018-12-06T05:22:54.702Z,7.51
2018-12-06T05:27:50.727Z,7.59
2018-12-06T05:32:46.737Z,7.67
2018-12-06T05:37:42.777Z,7.59
2018-12-06T05:42:38.802Z,7.55
2018-12-06T05:47:34.826Z,7.59
2018-12-06T05:52:30.870Z,7.59
2018-12-06T05:57:26.933Z,7.56
2018-12-06T06:02:23.161Z,7.62
2018-12-06T06:07:19.173Z,7.46
2018-12-06T06:12:15.185Z,7.49
2018-12-06T06:17:11.318Z,7.83
2018-12-06T06:22:07.335Z,7.78
2018-12-06T06:27:03.370Z,7.71
2018-12-06T06:31:59.390Z,7.65
2018-12-06T06:36:55.413Z,7.71
2018-12-06T06:41:51.499Z,7.82
2018-12-06T06:46:47.572Z,7.83
2018-12-06T06:51:43.608Z,7.83
2018-12-06T06:56:39.642Z,7.68
2018-12-06T07:01:35.676Z,7.74
2018-12-06T07:06:31.891Z,7.65
2018-12-06T07:11:28.027Z,7.67
2018-12-06T07:16:24.115Z,7.70
2018-12-06T07:21:20.160Z,7.77
2018-12-06T07:26:16.227Z,7.88
2018-12-06T07:31:12.306Z,7.84
2018-12-06T07:36:08.326Z,7.98
2018-12-06T07:41:04.549Z,8.00
2018-12-06T07:46:06.623Z,8.04
2018-12-06T07:51:02.670Z,8.12
2018-12-06T07:55:58.729Z,8.12
2018-12-06T08:00:54.815Z,8.27
2018-12-06T08:05:50.958Z,8.22
2018-12-06T08:10:47.006Z,8.23
2018-12-06T08:15:43.218Z,8.17
2018-12-06T08:20:39.252Z,8.19
2018-12-06T08:25:35.270Z,8.34
2018-12-06T08:30:31.295Z,8.36
2018-12-06T08:35:27.598Z,8.46
2018-12-06T08:40:23.667Z,8.57
2018-12-06T08:45:19.820Z,8.82
2018-12-06T08:50:15.899Z,8.87
2018-12-06T08:55:12.684Z,8.92
2018-12-06T09:00:09.634Z,8.88
2018-12-06T09:05:06.069Z,8.92
2018-12-06T09:10:03.919Z,8.89
2018-12-06T09:14:59.985Z,9.04
2018-12-06T09:19:56.029Z,9.04
2018-12-06T09:24:52.897Z,9.02
2018-12-06T09:29:48.934Z,9.03
2018-12-06T09:34:45.097Z,9.09
2018-12-06T09:39:48.043Z,9.03
2018-12-06T09:44:45.611Z,9.22
2018-12-06T09:49:41.722Z,9.37
2018-12-06T09:54:43.118Z,9.27
2018-12-06T09:59:39.341Z,9.28
2018-12-06T10:04:35.396Z,9.39
2018-12-06T10:09:31.434Z,9.46
2018-12-06T10:14:27.472Z,9.52
2018-12-06T10:19:23.606Z,9.82
2018-12-06T10:24:21.915Z,9.76
2018-12-06T10:29:18.650Z,9.83
2018-12-06T10:34:14.693Z,10.00
2018-12-06T10:39:10.736Z,10.00
2018-12-06T10:44:06.813Z,10.16
2018-12-06T10:49:02.853Z,10.33
2018-12-06T10:54:01.362Z,10.40
2018-12-06T10:58:57.488Z,10.29
2018-12-06T11:03:56.505Z,10.37
2018-12-06T11:08:52.566Z,10.44
2018-12-06T11:13:48.605Z,10.49
2018-12-06T11:18:44.663Z,10.60
2018-12-06T11:24:16.636Z,10.64
2018-12-06T11:29:12.817Z,10.64
2018-12-06T11:34:08.964Z,10.64
2018-12-06T11:39:06.330Z,10.65
2018-12-06T11:44:02.504Z,10.68
2018-12-06T11:48:58.537Z,10.74
2018-12-06T11:53:54.570Z,10.79
2018-12-06T11:58:50.631Z,10.73
2018-12-06T12:03:46.722Z,10.84
2018-12-06T12:08:42.797Z,10.87
2018-12-06T12:13:38.858Z,10.89
2018-12-06T12:18:34.932Z,10.90
2018-12-06T12:23:31.023Z,11.00
2018-12-06T12:28:27.079Z,11.06
2018-12-06T12:33:23.131Z,11.07
2018-12-06T12:38:19.306Z,11.06
2018-12-06T12:43:15.353Z,11.05
2018-12-06T12:48:11.390Z,11.08
2018-12-06T12:53:07.450Z,11.11
2018-12-06T12:58:03.467Z,11.12
2018-12-06T13:02:59.613Z,11.19
2018-12-06T13:07:55.679Z,11.21
2018-12-06T13:12:51.841Z,11.24
2018-12-06T13:17:48.865Z,11.24
2018-12-06T13:22:45.554Z,11.25
2018-12-06T13:27:44.334Z,11.30
2018-12-06T13:32:40.987Z,11.31
2018-12-06T13:37:39.975Z,11.35
2018-12-06T13:42:37.987Z,11.35
2018-12-06T13:47:34.821Z,11.35
2018-12-06T13:52:31.666Z,11.38
2018-12-06T13:57:29.127Z,11.42
2018-12-06T14:02:26.772Z,11.44
2018-12-06T14:07:23.562Z,11.44
2018-12-06T14:12:20.270Z,11.44
2018-12-06T14:17:19.332Z,11.45
2018-12-06T14:22:16.019Z,11.49
2018-12-06T14:27:12.926Z,11.48
2018-12-06T14:32:10.147Z,11.47
2018-12-06T14:37:07.344Z,11.52
2018-12-06T14:42:07.246Z,11.53
2018-12-06T14:47:04.139Z,11.53
2018-12-06T14:52:01.018Z,11.54
2018-12-06T14:56:58.134Z,11.49
2018-12-06T15:01:55.011Z,11.63
2018-12-06T15:06:54.044Z,11.60
2018-12-06T15:11:51.941Z,11.53
2018-12-06T15:16:49.495Z,11.53
2018-12-06T15:21:46.408Z,11.54
2018-12-06T15:26:43.623Z,11.63
2018-12-06T15:31:45.605Z,11.52
2018-12-06T15:36:43.219Z,11.60
2018-12-06T15:41:40.983Z,11.56
2018-12-06T15:46:38.129Z,11.55
2018-12-06T15:51:34.715Z,11.61
2018-12-06T15:56:31.583Z,11.62
2018-12-06T16:01:28.050Z,11.45
2018-12-06T16:06:25.082Z,11.52
2018-12-06T16:11:21.374Z,11.54
2018-12-06T16:16:18.045Z,11.63
2018-12-06T16:21:14.453Z,11.56
2018-12-06T16:26:16.933Z,11.53
2018-12-06T16:31:13.677Z,11.53
2018-12-06T16:36:10.794Z,11.55
2018-12-06T16:41:08.644Z,11.53
2018-12-06T16:46:05.366Z,11.68
2018-12-06T16:51:01.645Z,11.64
2018-12-06T16:55:57.878Z,11.68
2018-12-06T17:00:55.093Z,11.71
2018-12-06T17:05:52.569Z,11.66
2018-12-06T17:10:49.326Z,11.64
2018-12-06T17:15:46.271Z,11.73
2018-12-06T17:20:46.827Z,11.73
2018-12-06T17:25:43.572Z,11.70
2018-12-06T17:30:41.149Z,11.77
2018-12-06T17:35:38.899Z,11.75
2018-12-06T17:40:37.215Z,11.68
2018-12-06T17:45:34.022Z,11.63
2018-12-06T17:50:32.217Z,11.75
2018-12-06T17:55:34.425Z,11.67
2018-12-06T18:00:30.986Z,11.67
2018-12-06T18:05:31.760Z,11.88
2018-12-06T18:10:28.685Z,11.78
2018-12-06T18:15:26.181Z,11.78
2018-12-06T18:20:23.521Z,11.84
2018-12-06T18:25:21.072Z,11.83
2018-12-06T18:30:18.236Z,11.88
2018-12-06T18:35:14.838Z,11.89
2018-12-06T18:40:12.582Z,11.89
2018-12-06T18:45:09.432Z,11.94
2018-12-06T18:50:06.899Z,11.91
2018-12-06T18:55:06.476Z,11.89
2018-12-06T19:00:04.551Z,11.89
2018-12-06T19:05:01.342Z,11.88
2018-12-06T19:09:58.105Z,11.89
2018-12-06T19:14:55.854Z,11.89
2018-12-06T19:19:52.760Z,11.86
2018-12-06T19:24:49.603Z,11.89
2018-12-06T19:29:46.361Z,11.83
2018-12-06T19:34:43.564Z,11.86
2018-12-06T19:39:46.411Z,11.89
2018-12-06T19:44:43.862Z,11.91
2018-12-06T19:49:40.899Z,11.94
2018-12-06T19:54:37.674Z,11.88
2018-12-06T19:59:35.392Z,11.88
2018-12-06T20:04:32.376Z,11.89
2018-12-06T20:09:30.067Z,11.84
2018-12-06T20:14:26.967Z,11.81
2018-12-06T20:19:24.662Z,11.81
2018-12-06T20:24:22.611Z,11.83
2018-12-06T20:29:19.532Z,11.82
2018-12-06T20:34:16.897Z,11.82
2018-12-06T20:39:12.997Z,11.85
2018-12-06T20:44:08.998Z,11.82
2018-12-06T20:49:05.051Z,11.87
2018-12-06T20:54:02.640Z,11.89
2018-12-06T20:58:58.706Z,11.93
2018-12-06T21:03:54.713Z,12.00
2018-12-06T21:08:50.724Z,12.03
2018-12-06T21:13:46.737Z,12.10
2018-12-06T21:18:42.830Z,12.08
2018-12-06T21:23:38.834Z,12.10
2018-12-06T21:28:34.860Z,12.12
2018-12-06T21:33:30.889Z,12.12
2018-12-06T21:38:26.897Z,12.14
2018-12-06T21:43:22.920Z,12.14
2018-12-06T21:48:18.927Z,12.16
2018-12-06T21:53:14.933Z,12.12
2018-12-06T21:58:11.059Z,12.19
2018-12-06T22:03:07.067Z,12.21
2018-12-06T22:08:07.254Z,12.19
2018-12-06T22:13:05.764Z,12.21
2018-12-06T22:18:02.846Z,12.25
2018-12-06T22:23:01.196Z,12.23
2018-12-06T22:27:58.493Z,12.31
2018-12-06T22:32:54.575Z,12.28
2018-12-06T22:37:50.683Z,12.35
2018-12-06T22:42:46.682Z,12.39
2018-12-06T22:47:42.709Z,12.39
2018-12-06T22:52:38.726Z,12.45
2018-12-06T22:57:34.743Z,12.42
2018-12-06T23:02:30.762Z,12.38
2018-12-06T23:07:26.790Z,12.36
2018-12-06T23:12:22.804Z,12.32
2018-12-06T23:17:18.842Z,12.28
2018-12-06T23:22:15.890Z,12.24
2018-12-06T23:27:13.400Z,12.20
2018-12-06T23:32:11.369Z,12.11
2018-12-06T23:37:07.768Z,12.09
2018-12-06T23:42:04.465Z,12.03
2018-12-06T23:47:00.529Z,11.96
2018-12-06T23:51:56.534Z,11.90
2018-12-06T23:56:54.561Z,11.83
